sensor_id;sensor_type;location;lat;lon;timestamp;P1;durP1;ratioP1;P2;durP2;ratioP2
6388;SDS011;3227;42.654;23.360;2023-09-18T00:00:40;24.50;;;14.18;;
6388;SDS011;3227;42.654;23.360;2023-09-18T00:03:07;18.15;;;13.82;;
6388;SDS011;3227;42.654;23.360;2023-09-18T00:05:34;19.63;;;14.20;;
6388;SDS011;3227;42.654;23.360;2023-09-18T00:08:03;21.60;;;15.17;;
6388;SDS011;3227;42.654;23.360;2023-09-18T00:10:30;20.75;;;15.30;;
6388;SDS011;3227;42.654;23.360;2023-09-18T00:12:56;23.27;;;16.27;;
6388;SDS011;3227;42.654;23.360;2023-09-18T00:15:23;22.27;;;16.27;;
6388;SDS011;3227;42.654;23.360;2023-09-18T00:17:50;24.25;;;17.33;;
6388;SDS011;3227;42.654;23.360;2023-09-18T00:20:17;22.93;;;17.47;;
6388;SDS011;3227;42.654;23.360;2023-09-18T00:22:45;24.77;;;19.43;;
6388;SDS011;3227;42.654;23.360;2023-09-18T00:25:14;22.33;;;18.77;;
6388;SDS011;3227;42.654;23.360;2023-09-18T00:27:41;27.25;;;19.40;;
6388;SDS011;3227;42.654;23.360;2023-09-18T00:30:08;24.48;;;19.20;;
6388;SDS011;3227;42.654;23.360;2023-09-18T00:32:36;24.87;;;20.60;;
6388;SDS011;3227;42.654;23.360;2023-09-18T00:35:03;26.77;;;21.20;;
6388;SDS011;3227;42.654;23.360;2023-09-18T00:37:30;26.80;;;20.70;;
6388;SDS011;3227;42.654;23.360;2023-09-18T00:39:57;31.27;;;22.93;;
6388;SDS011;3227;42.654;23.360;2023-09-18T00:42:25;27.67;;;22.10;;
6388;SDS011;3227;42.654;23.360;2023-09-18T00:44:52;26.00;;;22.37;;
6388;SDS011;3227;42.654;23.360;2023-09-18T00:47:19;28.02;;;22.77;;
6388;SDS011;3227;42.654;23.360;2023-09-18T00:49:46;29.17;;;21.97;;
6388;SDS011;3227;42.654;23.360;2023-09-18T00:52:15;27.47;;;22.50;;
6388;SDS011;3227;42.654;23.360;2023-09-18T00:54:43;29.37;;;22.80;;
6388;SDS011;3227;42.654;23.360;2023-09-18T00:57:11;28.27;;;23.07;;
6388;SDS011;3227;42.654;23.360;2023-09-18T00:59:39;26.33;;;22.13;;
6388;SDS011;3227;42.654;23.360;2023-09-18T01:02:06;31.05;;;21.67;;
6388;SDS011;3227;42.654;23.360;2023-09-18T01:04:34;28.40;;;21.73;;
6388;SDS011;3227;42.654;23.360;2023-09-18T01:07:01;28.52;;;22.38;;
6388;SDS011;3227;42.654;23.360;2023-09-18T01:09:29;27.20;;;20.67;;
6388;SDS011;3227;42.654;23.360;2023-09-18T01:12:00;26.52;;;20.30;;
6388;SDS011;3227;42.654;23.360;2023-09-18T01:14:34;22.50;;;19.48;;
6388;SDS011;3227;42.654;23.360;2023-09-18T01:17:06;26.07;;;18.43;;
6388;SDS011;3227;42.654;23.360;2023-09-18T01:19:39;23.75;;;18.23;;
6388;SDS011;3227;42.654;23.360;2023-09-18T01:22:07;26.48;;;18.92;;
6388;SDS011;3227;42.654;23.360;2023-09-18T01:24:37;20.93;;;16.50;;
6388;SDS011;3227;42.654;23.360;2023-09-18T01:27:06;22.40;;;16.70;;
6388;SDS011;3227;42.654;23.360;2023-09-18T01:29:35;25.17;;;17.47;;
6388;SDS011;3227;42.654;23.360;2023-09-18T01:32:02;19.83;;;16.97;;
6388;SDS011;3227;42.654;23.360;2023-09-18T01:34:30;19.90;;;16.27;;
6388;SDS011;3227;42.654;23.360;2023-09-18T01:37:01;19.77;;;14.57;;
6388;SDS011;3227;42.654;23.360;2023-09-18T01:39:31;18.87;;;15.07;;
6388;SDS011;3227;42.654;23.360;2023-09-18T01:42:00;19.60;;;15.40;;
6388;SDS011;3227;42.654;23.360;2023-09-18T01:44:29;20.20;;;16.03;;
6388;SDS011;3227;42.654;23.360;2023-09-18T01:46:57;19.87;;;16.23;;
6388;SDS011;3227;42.654;23.360;2023-09-18T01:49:28;18.93;;;15.03;;
6388;SDS011;3227;42.654;23.360;2023-09-18T01:51:55;21.48;;;15.88;;
6388;SDS011;3227;42.654;23.360;2023-09-18T01:54:22;21.88;;;16.42;;
6388;SDS011;3227;42.654;23.360;2023-09-18T01:56:49;25.95;;;17.42;;
6388;SDS011;3227;42.654;23.360;2023-09-18T01:59:18;26.40;;;15.77;;
6388;SDS011;3227;42.654;23.360;2023-09-18T02:01:45;23.80;;;16.33;;
6388;SDS011;3227;42.654;23.360;2023-09-18T02:04:12;19.33;;;16.57;;
6388;SDS011;3227;42.654;23.360;2023-09-18T02:06:50;21.15;;;15.63;;
6388;SDS011;3227;42.654;23.360;2023-09-18T02:09:17;21.83;;;16.65;;
6388;SDS011;3227;42.654;23.360;2023-09-18T02:11:44;20.38;;;15.98;;
6388;SDS011;3227;42.654;23.360;2023-09-18T02:14:12;21.47;;;16.20;;
6388;SDS011;3227;42.654;23.360;2023-09-18T02:16:41;20.95;;;16.85;;
6388;SDS011;3227;42.654;23.360;2023-09-18T02:19:09;20.85;;;16.75;;
6388;SDS011;3227;42.654;23.360;2023-09-18T02:21:37;21.65;;;16.98;;
6388;SDS011;3227;42.654;23.360;2023-09-18T02:24:04;19.80;;;16.33;;
6388;SDS011;3227;42.654;23.360;2023-09-18T02:26:31;22.67;;;15.73;;
6388;SDS011;3227;42.654;23.360;2023-09-18T02:28:58;19.73;;;16.83;;
6388;SDS011;3227;42.654;23.360;2023-09-18T02:31:26;21.00;;;15.20;;
6388;SDS011;3227;42.654;23.360;2023-09-18T02:33:54;21.42;;;15.93;;
6388;SDS011;3227;42.654;23.360;2023-09-18T02:36:22;17.70;;;14.90;;
6388;SDS011;3227;42.654;23.360;2023-09-18T02:38:48;22.00;;;15.90;;
6388;SDS011;3227;42.654;23.360;2023-09-18T02:41:15;19.37;;;14.53;;
6388;SDS011;3227;42.654;23.360;2023-09-18T02:43:42;18.30;;;13.90;;
6388;SDS011;3227;42.654;23.360;2023-09-18T02:46:09;16.13;;;14.17;;
6388;SDS011;3227;42.654;23.360;2023-09-18T02:48:35;19.00;;;14.03;;
6388;SDS011;3227;42.654;23.360;2023-09-18T02:51:06;17.97;;;14.40;;
6388;SDS011;3227;42.654;23.360;2023-09-18T02:53:33;19.13;;;14.03;;
6388;SDS011;3227;42.654;23.360;2023-09-18T02:56:00;18.80;;;14.80;;
6388;SDS011;3227;42.654;23.360;2023-09-18T02:58:26;17.57;;;14.00;;
6388;SDS011;3227;42.654;23.360;2023-09-18T03:00:55;19.63;;;14.10;;
6388;SDS011;3227;42.654;23.360;2023-09-18T03:03:23;18.97;;;14.93;;
6388;SDS011;3227;42.654;23.360;2023-09-18T03:05:50;19.47;;;14.63;;
6388;SDS011;3227;42.654;23.360;2023-09-18T03:08:18;20.63;;;16.63;;
6388;SDS011;3227;42.654;23.360;2023-09-18T03:10:45;19.50;;;14.97;;
6388;SDS011;3227;42.654;23.360;2023-09-18T03:13:13;19.93;;;15.37;;
6388;SDS011;3227;42.654;23.360;2023-09-18T03:15:41;19.40;;;14.47;;
6388;SDS011;3227;42.654;23.360;2023-09-18T03:18:11;19.73;;;14.63;;
6388;SDS011;3227;42.654;23.360;2023-09-18T03:20:38;20.63;;;14.97;;
6388;SDS011;3227;42.654;23.360;2023-09-18T03:23:05;21.13;;;15.37;;
6388;SDS011;3227;42.654;23.360;2023-09-18T03:25:43;19.23;;;16.20;;
6388;SDS011;3227;42.654;23.360;2023-09-18T03:28:11;20.83;;;15.17;;
6388;SDS011;3227;42.654;23.360;2023-09-18T03:30:37;19.77;;;15.03;;
6388;SDS011;3227;42.654;23.360;2023-09-18T03:33:04;19.53;;;15.33;;
6388;SDS011;3227;42.654;23.360;2023-09-18T03:35:44;19.80;;;15.23;;
6388;SDS011;3227;42.654;23.360;2023-09-18T03:38:14;18.63;;;15.43;;
6388;SDS011;3227;42.654;23.360;2023-09-18T03:40:42;24.13;;;16.80;;
6388;SDS011;3227;42.654;23.360;2023-09-18T03:43:10;20.90;;;16.27;;
6388;SDS011;3227;42.654;23.360;2023-09-18T03:45:37;22.37;;;16.93;;
6388;SDS011;3227;42.654;23.360;2023-09-18T03:48:05;20.97;;;15.90;;
6388;SDS011;3227;42.654;23.360;2023-09-18T03:50:32;21.80;;;17.10;;
6388;SDS011;3227;42.654;23.360;2023-09-18T03:52:59;25.43;;;17.33;;
6388;SDS011;3227;42.654;23.360;2023-09-18T03:55:31;23.17;;;16.77;;
6388;SDS011;3227;42.654;23.360;2023-09-18T03:57:59;24.77;;;16.87;;
6388;SDS011;3227;42.654;23.360;2023-09-18T04:00:26;25.50;;;17.00;;
6388;SDS011;3227;42.654;23.360;2023-09-18T04:02:53;23.80;;;17.90;;
6388;SDS011;3227;42.654;23.360;2023-09-18T04:05:20;21.00;;;17.37;;
6388;SDS011;3227;42.654;23.360;2023-09-18T04:07:46;24.77;;;17.27;;
6388;SDS011;3227;42.654;23.360;2023-09-18T04:10:14;27.47;;;18.50;;
6388;SDS011;3227;42.654;23.360;2023-09-18T04:12:44;25.13;;;18.33;;
6388;SDS011;3227;42.654;23.360;2023-09-18T04:15:14;22.23;;;17.77;;
6388;SDS011;3227;42.654;23.360;2023-09-18T04:17:42;27.43;;;19.20;;
6388;SDS011;3227;42.654;23.360;2023-09-18T04:20:09;25.43;;;18.43;;
6388;SDS011;3227;42.654;23.360;2023-09-18T04:22:46;25.17;;;18.47;;
6388;SDS011;3227;42.654;23.360;2023-09-18T04:25:15;29.80;;;19.30;;
6388;SDS011;3227;42.654;23.360;2023-09-18T04:27:42;27.63;;;19.37;;
6388;SDS011;3227;42.654;23.360;2023-09-18T04:30:09;22.37;;;18.83;;
6388;SDS011;3227;42.654;23.360;2023-09-18T04:32:37;24.07;;;17.97;;
6388;SDS011;3227;42.654;23.360;2023-09-18T04:35:05;25.33;;;19.37;;
6388;SDS011;3227;42.654;23.360;2023-09-18T04:37:35;27.57;;;18.87;;
6388;SDS011;3227;42.654;23.360;2023-09-18T04:40:04;28.27;;;18.07;;
6388;SDS011;3227;42.654;23.360;2023-09-18T04:42:35;26.50;;;18.07;;
6388;SDS011;3227;42.654;23.360;2023-09-18T04:45:02;29.13;;;19.37;;
6388;SDS011;3227;42.654;23.360;2023-09-18T04:47:29;27.90;;;18.97;;
6388;SDS011;3227;42.654;23.360;2023-09-18T04:49:57;29.47;;;18.53;;
6388;SDS011;3227;42.654;23.360;2023-09-18T04:52:24;29.47;;;19.40;;
6388;SDS011;3227;42.654;23.360;2023-09-18T04:54:50;29.17;;;19.30;;
6388;SDS011;3227;42.654;23.360;2023-09-18T04:57:19;27.73;;;18.43;;
6388;SDS011;3227;42.654;23.360;2023-09-18T04:59:47;27.93;;;18.47;;
6388;SDS011;3227;42.654;23.360;2023-09-18T05:02:14;27.67;;;18.53;;
6388;SDS011;3227;42.654;23.360;2023-09-18T05:04:41;31.10;;;19.23;;
6388;SDS011;3227;42.654;23.360;2023-09-18T05:07:09;25.43;;;18.37;;
6388;SDS011;3227;42.654;23.360;2023-09-18T05:09:36;25.40;;;17.88;;
6388;SDS011;3227;42.654;23.360;2023-09-18T05:12:04;27.52;;;18.70;;
6388;SDS011;3227;42.654;23.360;2023-09-18T05:14:33;27.20;;;17.92;;
6388;SDS011;3227;42.654;23.360;2023-09-18T05:17:00;24.95;;;17.75;;
6388;SDS011;3227;42.654;23.360;2023-09-18T05:19:27;23.50;;;17.60;;
6388;SDS011;3227;42.654;23.360;2023-09-18T05:21:54;22.85;;;17.55;;
6388;SDS011;3227;42.654;23.360;2023-09-18T05:24:22;23.52;;;17.67;;
6388;SDS011;3227;42.654;23.360;2023-09-18T05:26:52;26.88;;;17.73;;
6388;SDS011;3227;42.654;23.360;2023-09-18T05:29:19;25.50;;;17.17;;
6388;SDS011;3227;42.654;23.360;2023-09-18T05:31:46;24.55;;;16.98;;
6388;SDS011;3227;42.654;23.360;2023-09-18T05:34:13;24.67;;;16.38;;
6388;SDS011;3227;42.654;23.360;2023-09-18T05:36:40;24.25;;;16.15;;
6388;SDS011;3227;42.654;23.360;2023-09-18T05:39:07;25.25;;;18.55;;
6388;SDS011;3227;42.654;23.360;2023-09-18T05:41:36;28.50;;;16.77;;
6388;SDS011;3227;42.654;23.360;2023-09-18T05:44:03;23.48;;;16.80;;
6388;SDS011;3227;42.654;23.360;2023-09-18T05:46:33;25.95;;;18.30;;
6388;SDS011;3227;42.654;23.360;2023-09-18T05:49:00;22.00;;;17.02;;
6388;SDS011;3227;42.654;23.360;2023-09-18T05:51:27;23.40;;;16.35;;
6388;SDS011;3227;42.654;23.360;2023-09-18T05:53:53;22.67;;;17.52;;
6388;SDS011;3227;42.654;23.360;2023-09-18T05:56:20;21.17;;;15.88;;
6388;SDS011;3227;42.654;23.360;2023-09-18T05:58:50;26.52;;;17.30;;
6388;SDS011;3227;42.654;23.360;2023-09-18T06:01:18;30.67;;;17.13;;
6388;SDS011;3227;42.654;23.360;2023-09-18T06:03:44;25.33;;;16.88;;
6388;SDS011;3227;42.654;23.360;2023-09-18T06:06:12;22.92;;;16.05;;
6388;SDS011;3227;42.654;23.360;2023-09-18T06:08:39;23.33;;;16.00;;
6388;SDS011;3227;42.654;23.360;2023-09-18T06:11:06;20.25;;;15.73;;
6388;SDS011;3227;42.654;23.360;2023-09-18T06:13:33;20.38;;;16.30;;
6388;SDS011;3227;42.654;23.360;2023-09-18T06:16:02;20.52;;;14.93;;
6388;SDS011;3227;42.654;23.360;2023-09-18T06:18:33;23.42;;;14.77;;
6388;SDS011;3227;42.654;23.360;2023-09-18T06:21:00;22.83;;;14.27;;
6388;SDS011;3227;42.654;23.360;2023-09-18T06:23:27;19.95;;;13.80;;
6388;SDS011;3227;42.654;23.360;2023-09-18T06:25:54;18.52;;;12.50;;
6388;SDS011;3227;42.654;23.360;2023-09-18T06:28:21;19.42;;;13.75;;
6388;SDS011;3227;42.654;23.360;2023-09-18T06:30:48;19.15;;;13.77;;
6388;SDS011;3227;42.654;23.360;2023-09-18T06:33:16;18.80;;;14.23;;
6388;SDS011;3227;42.654;23.360;2023-09-18T06:35:43;17.52;;;13.32;;
6388;SDS011;3227;42.654;23.360;2023-09-18T06:38:10;18.02;;;13.38;;
6388;SDS011;3227;42.654;23.360;2023-09-18T06:40:37;19.95;;;14.50;;
6388;SDS011;3227;42.654;23.360;2023-09-18T06:43:04;21.05;;;14.50;;
6388;SDS011;3227;42.654;23.360;2023-09-18T06:45:31;21.33;;;13.30;;
6388;SDS011;3227;42.654;23.360;2023-09-18T06:47:58;18.42;;;14.35;;
6388;SDS011;3227;42.654;23.360;2023-09-18T06:50:27;21.50;;;14.30;;
6388;SDS011;3227;42.654;23.360;2023-09-18T06:52:54;18.65;;;13.73;;
6388;SDS011;3227;42.654;23.360;2023-09-18T06:55:21;17.35;;;13.77;;
6388;SDS011;3227;42.654;23.360;2023-09-18T06:57:48;22.00;;;14.68;;
6388;SDS011;3227;42.654;23.360;2023-09-18T07:00:17;19.33;;;14.52;;
6388;SDS011;3227;42.654;23.360;2023-09-18T07:02:45;25.75;;;15.18;;
6388;SDS011;3227;42.654;23.360;2023-09-18T07:05:14;19.70;;;15.52;;
6388;SDS011;3227;42.654;23.360;2023-09-18T07:07:43;19.02;;;14.32;;
6388;SDS011;3227;42.654;23.360;2023-09-18T07:10:10;21.52;;;14.60;;
6388;SDS011;3227;42.654;23.360;2023-09-18T07:12:37;21.80;;;14.27;;
6388;SDS011;3227;42.654;23.360;2023-09-18T07:15:04;25.30;;;15.32;;
6388;SDS011;3227;42.654;23.360;2023-09-18T07:17:32;20.75;;;14.85;;
6388;SDS011;3227;42.654;23.360;2023-09-18T07:20:00;19.08;;;14.38;;
6388;SDS011;3227;42.654;23.360;2023-09-18T07:22:33;19.98;;;15.07;;
6388;SDS011;3227;42.654;23.360;2023-09-18T07:25:01;18.88;;;14.60;;
6388;SDS011;3227;42.654;23.360;2023-09-18T07:27:28;20.40;;;13.88;;
6388;SDS011;3227;42.654;23.360;2023-09-18T07:29:55;20.85;;;15.45;;
6388;SDS011;3227;42.654;23.360;2023-09-18T07:32:23;18.00;;;13.88;;
6388;SDS011;3227;42.654;23.360;2023-09-18T07:34:51;23.13;;;15.13;;
6388;SDS011;3227;42.654;23.360;2023-09-18T07:37:18;21.65;;;16.15;;
6388;SDS011;3227;42.654;23.360;2023-09-18T07:39:46;22.75;;;14.90;;
6388;SDS011;3227;42.654;23.360;2023-09-18T07:42:14;18.90;;;14.50;;
6388;SDS011;3227;42.654;23.360;2023-09-18T07:44:41;19.95;;;15.35;;
6388;SDS011;3227;42.654;23.360;2023-09-18T07:47:08;19.23;;;14.13;;
6388;SDS011;3227;42.654;23.360;2023-09-18T07:49:35;19.33;;;14.10;;
6388;SDS011;3227;42.654;23.360;2023-09-18T07:52:01;18.40;;;14.53;;
6388;SDS011;3227;42.654;23.360;2023-09-18T07:54:28;21.38;;;15.15;;
6388;SDS011;3227;42.654;23.360;2023-09-18T07:56:55;19.50;;;14.38;;
6388;SDS011;3227;42.654;23.360;2023-09-18T07:59:23;20.27;;;13.77;;
6388;SDS011;3227;42.654;23.360;2023-09-18T08:01:50;19.15;;;15.23;;
6388;SDS011;3227;42.654;23.360;2023-09-18T08:04:17;17.17;;;13.35;;
6388;SDS011;3227;42.654;23.360;2023-09-18T08:06:44;19.10;;;14.93;;
6388;SDS011;3227;42.654;23.360;2023-09-18T08:09:11;18.33;;;14.00;;
6388;SDS011;3227;42.654;23.360;2023-09-18T08:11:38;18.83;;;14.10;;
6388;SDS011;3227;42.654;23.360;2023-09-18T08:14:07;23.98;;;13.82;;
6388;SDS011;3227;42.654;23.360;2023-09-18T08:16:37;19.83;;;14.32;;
6388;SDS011;3227;42.654;23.360;2023-09-18T08:19:04;21.63;;;14.35;;
6388;SDS011;3227;42.654;23.360;2023-09-18T08:21:31;19.45;;;13.40;;
6388;SDS011;3227;42.654;23.360;2023-09-18T08:23:58;20.90;;;14.50;;
6388;SDS011;3227;42.654;23.360;2023-09-18T08:26:25;17.63;;;13.15;;
6388;SDS011;3227;42.654;23.360;2023-09-18T08:28:52;16.98;;;13.30;;
6388;SDS011;3227;42.654;23.360;2023-09-18T08:31:19;18.13;;;13.07;;
6388;SDS011;3227;42.654;23.360;2023-09-18T08:33:47;17.98;;;13.25;;
6388;SDS011;3227;42.654;23.360;2023-09-18T08:36:14;19.77;;;13.32;;
6388;SDS011;3227;42.654;23.360;2023-09-18T08:38:41;18.98;;;13.07;;
6388;SDS011;3227;42.654;23.360;2023-09-18T08:41:09;17.38;;;13.43;;
6388;SDS011;3227;42.654;23.360;2023-09-18T08:43:36;20.10;;;13.65;;
6388;SDS011;3227;42.654;23.360;2023-09-18T08:46:07;18.05;;;13.50;;
6388;SDS011;3227;42.654;23.360;2023-09-18T08:48:34;19.95;;;13.50;;
6388;SDS011;3227;42.654;23.360;2023-09-18T08:51:03;20.03;;;14.67;;
6388;SDS011;3227;42.654;23.360;2023-09-18T08:53:32;17.10;;;12.20;;
6388;SDS011;3227;42.654;23.360;2023-09-18T08:56:00;17.08;;;13.38;;
6388;SDS011;3227;42.654;23.360;2023-09-18T08:58:28;17.92;;;13.45;;
6388;SDS011;3227;42.654;23.360;2023-09-18T09:00:58;20.08;;;12.73;;
6388;SDS011;3227;42.654;23.360;2023-09-18T09:03:26;16.13;;;12.00;;
6388;SDS011;3227;42.654;23.360;2023-09-18T09:05:53;17.80;;;12.13;;
6388;SDS011;3227;42.654;23.360;2023-09-18T09:08:21;15.27;;;12.38;;
6388;SDS011;3227;42.654;23.360;2023-09-18T09:10:48;18.23;;;12.02;;
6388;SDS011;3227;42.654;23.360;2023-09-18T09:13:15;15.40;;;11.75;;
6388;SDS011;3227;42.654;23.360;2023-09-18T09:15:43;14.38;;;10.52;;
6388;SDS011;3227;42.654;23.360;2023-09-18T09:18:12;25.17;;;11.60;;
6388;SDS011;3227;42.654;23.360;2023-09-18T09:20:40;14.32;;;10.63;;
6388;SDS011;3227;42.654;23.360;2023-09-18T09:23:08;15.75;;;10.95;;
6388;SDS011;3227;42.654;23.360;2023-09-18T09:25:37;17.80;;;11.43;;
6388;SDS011;3227;42.654;23.360;2023-09-18T09:28:04;16.45;;;10.73;;
6388;SDS011;3227;42.654;23.360;2023-09-18T09:30:33;15.15;;;11.63;;
6388;SDS011;3227;42.654;23.360;2023-09-18T09:33:01;18.70;;;11.65;;
6388;SDS011;3227;42.654;23.360;2023-09-18T09:35:30;14.50;;;10.80;;
6388;SDS011;3227;42.654;23.360;2023-09-18T09:37:59;21.20;;;11.13;;
6388;SDS011;3227;42.654;23.360;2023-09-18T09:40:28;13.73;;;10.07;;
6388;SDS011;3227;42.654;23.360;2023-09-18T09:42:59;14.02;;;10.32;;
6388;SDS011;3227;42.654;23.360;2023-09-18T09:45:27;16.02;;;10.40;;
6388;SDS011;3227;42.654;23.360;2023-09-18T09:47:55;14.88;;;10.55;;
6388;SDS011;3227;42.654;23.360;2023-09-18T09:50:23;19.88;;;12.32;;
6388;SDS011;3227;42.654;23.360;2023-09-18T09:52:52;16.80;;;9.82;;
6388;SDS011;3227;42.654;23.360;2023-09-18T09:55:21;17.20;;;10.27;;
6388;SDS011;3227;42.654;23.360;2023-09-18T09:57:51;13.13;;;8.85;;
6388;SDS011;3227;42.654;23.360;2023-09-18T10:00:23;14.88;;;9.13;;
6388;SDS011;3227;42.654;23.360;2023-09-18T10:02:58;14.25;;;9.05;;
6388;SDS011;3227;42.654;23.360;2023-09-18T10:05:28;14.57;;;9.73;;
6388;SDS011;3227;42.654;23.360;2023-09-18T10:07:58;15.77;;;9.73;;
6388;SDS011;3227;42.654;23.360;2023-09-18T10:10:28;14.25;;;9.70;;
6388;SDS011;3227;42.654;23.360;2023-09-18T10:12:57;12.80;;;9.40;;
6388;SDS011;3227;42.654;23.360;2023-09-18T10:15:30;13.48;;;9.45;;
6388;SDS011;3227;42.654;23.360;2023-09-18T10:18:03;19.02;;;9.32;;
6388;SDS011;3227;42.654;23.360;2023-09-18T10:20:36;13.40;;;9.20;;
6388;SDS011;3227;42.654;23.360;2023-09-18T10:23:09;13.63;;;9.05;;
6388;SDS011;3227;42.654;23.360;2023-09-18T10:25:49;13.30;;;8.70;;
6388;SDS011;3227;42.654;23.360;2023-09-18T10:28:20;11.13;;;7.95;;
6388;SDS011;3227;42.654;23.360;2023-09-18T10:30:49;12.77;;;7.28;;
6388;SDS011;3227;42.654;23.360;2023-09-18T10:33:17;14.68;;;7.80;;
6388;SDS011;3227;42.654;23.360;2023-09-18T10:35:45;14.40;;;6.78;;
6388;SDS011;3227;42.654;23.360;2023-09-18T10:38:13;10.68;;;6.85;;
6388;SDS011;3227;42.654;23.360;2023-09-18T10:40:42;9.77;;;7.35;;
6388;SDS011;3227;42.654;23.360;2023-09-18T10:43:10;10.52;;;7.65;;
6388;SDS011;3227;42.654;23.360;2023-09-18T10:45:38;9.63;;;7.35;;
6388;SDS011;3227;42.654;23.360;2023-09-18T10:48:07;14.35;;;8.43;;
6388;SDS011;3227;42.654;23.360;2023-09-18T10:50:35;13.43;;;8.27;;
6388;SDS011;3227;42.654;23.360;2023-09-18T10:53:04;10.85;;;7.40;;
6388;SDS011;3227;42.654;23.360;2023-09-18T10:55:31;12.55;;;7.28;;
6388;SDS011;3227;42.654;23.360;2023-09-18T10:57:59;12.95;;;6.68;;
6388;SDS011;3227;42.654;23.360;2023-09-18T11:00:26;11.23;;;6.57;;
6388;SDS011;3227;42.654;23.360;2023-09-18T11:03:10;9.82;;;6.50;;
6388;SDS011;3227;42.654;23.360;2023-09-18T11:05:38;11.00;;;6.50;;
6388;SDS011;3227;42.654;23.360;2023-09-18T11:11:00;11.65;;;6.68;;
6388;SDS011;3227;42.654;23.360;2023-09-18T11:13:38;14.68;;;6.68;;
6388;SDS011;3227;42.654;23.360;2023-09-18T11:16:13;10.77;;;6.45;;
6388;SDS011;3227;42.654;23.360;2023-09-18T11:18:51;9.93;;;6.20;;
6388;SDS011;3227;42.654;23.360;2023-09-18T11:21:23;10.15;;;6.45;;
6388;SDS011;3227;42.654;23.360;2023-09-18T11:23:57;9.55;;;6.40;;
6388;SDS011;3227;42.654;23.360;2023-09-18T11:26:28;9.63;;;6.00;;
6388;SDS011;3227;42.654;23.360;2023-09-18T11:28:55;10.65;;;6.43;;
6388;SDS011;3227;42.654;23.360;2023-09-18T11:34:12;10.45;;;6.38;;
6388;SDS011;3227;42.654;23.360;2023-09-18T11:36:40;10.68;;;5.90;;
6388;SDS011;3227;42.654;23.360;2023-09-18T11:39:07;9.88;;;5.47;;
6388;SDS011;3227;42.654;23.360;2023-09-18T11:41:36;8.85;;;5.85;;
6388;SDS011;3227;42.654;23.360;2023-09-18T11:46:58;12.30;;;5.95;;
6388;SDS011;3227;42.654;23.360;2023-09-18T11:49:27;9.02;;;5.95;;
6388;SDS011;3227;42.654;23.360;2023-09-18T11:51:58;10.57;;;5.90;;
6388;SDS011;3227;42.654;23.360;2023-09-18T11:54:26;11.73;;;5.55;;
6388;SDS011;3227;42.654;23.360;2023-09-18T11:56:53;13.77;;;6.60;;
6388;SDS011;3227;42.654;23.360;2023-09-18T11:59:32;9.02;;;5.50;;
6388;SDS011;3227;42.654;23.360;2023-09-18T12:02:01;11.18;;;6.38;;
6388;SDS011;3227;42.654;23.360;2023-09-18T12:04:32;8.52;;;5.43;;
6388;SDS011;3227;42.654;23.360;2023-09-18T12:06:59;8.23;;;5.72;;
6388;SDS011;3227;42.654;23.360;2023-09-18T12:09:28;10.82;;;5.70;;
6388;SDS011;3227;42.654;23.360;2023-09-18T12:11:55;7.40;;;5.50;;
6388;SDS011;3227;42.654;23.360;2023-09-18T12:14:23;8.80;;;5.68;;
6388;SDS011;3227;42.654;23.360;2023-09-18T12:16:50;9.73;;;5.80;;
6388;SDS011;3227;42.654;23.360;2023-09-18T12:19:17;11.40;;;5.90;;
6388;SDS011;3227;42.654;23.360;2023-09-18T12:21:46;12.02;;;5.95;;
6388;SDS011;3227;42.654;23.360;2023-09-18T12:24:14;10.63;;;5.93;;
6388;SDS011;3227;42.654;23.360;2023-09-18T12:26:41;8.80;;;5.93;;
6388;SDS011;3227;42.654;23.360;2023-09-18T12:29:08;10.45;;;5.78;;
6388;SDS011;3227;42.654;23.360;2023-09-18T12:31:37;9.93;;;6.43;;
6388;SDS011;3227;42.654;23.360;2023-09-18T12:34:04;9.68;;;5.40;;
6388;SDS011;3227;42.654;23.360;2023-09-18T12:36:32;11.65;;;6.53;;
6388;SDS011;3227;42.654;23.360;2023-09-18T12:39:00;8.98;;;6.35;;
6388;SDS011;3227;42.654;23.360;2023-09-18T12:41:27;9.45;;;6.20;;
6388;SDS011;3227;42.654;23.360;2023-09-18T12:43:55;10.45;;;6.20;;
6388;SDS011;3227;42.654;23.360;2023-09-18T12:46:22;11.48;;;6.40;;
6388;SDS011;3227;42.654;23.360;2023-09-18T12:48:49;8.95;;;6.07;;
6388;SDS011;3227;42.654;23.360;2023-09-18T12:51:16;9.90;;;6.00;;
6388;SDS011;3227;42.654;23.360;2023-09-18T12:53:47;10.50;;;6.82;;
6388;SDS011;3227;42.654;23.360;2023-09-18T12:56:26;15.73;;;8.23;;
6388;SDS011;3227;42.654;23.360;2023-09-18T12:58:56;9.25;;;5.55;;
6388;SDS011;3227;42.654;23.360;2023-09-18T13:01:23;11.63;;;6.00;;
6388;SDS011;3227;42.654;23.360;2023-09-18T13:03:53;8.23;;;5.60;;
6388;SDS011;3227;42.654;23.360;2023-09-18T13:06:20;12.23;;;5.88;;
6388;SDS011;3227;42.654;23.360;2023-09-18T13:08:48;9.40;;;5.93;;
6388;SDS011;3227;42.654;23.360;2023-09-18T13:11:18;8.55;;;5.55;;
6388;SDS011;3227;42.654;23.360;2023-09-18T13:13:46;8.73;;;5.35;;
6388;SDS011;3227;42.654;23.360;2023-09-18T13:16:23;11.02;;;5.82;;
6388;SDS011;3227;42.654;23.360;2023-09-18T13:18:50;9.82;;;5.22;;
6388;SDS011;3227;42.654;23.360;2023-09-18T13:21:18;9.77;;;5.65;;
6388;SDS011;3227;42.654;23.360;2023-09-18T13:23:45;8.05;;;5.50;;
6388;SDS011;3227;42.654;23.360;2023-09-18T13:26:12;8.80;;;5.57;;
6388;SDS011;3227;42.654;23.360;2023-09-18T13:28:38;8.20;;;5.53;;
6388;SDS011;3227;42.654;23.360;2023-09-18T13:31:07;10.43;;;5.80;;
6388;SDS011;3227;42.654;23.360;2023-09-18T13:33:37;13.00;;;6.43;;
6388;SDS011;3227;42.654;23.360;2023-09-18T13:36:05;11.55;;;5.65;;
6388;SDS011;3227;42.654;23.360;2023-09-18T13:38:32;10.23;;;6.03;;
6388;SDS011;3227;42.654;23.360;2023-09-18T13:40:58;9.18;;;5.85;;
6388;SDS011;3227;42.654;23.360;2023-09-18T13:43:25;9.90;;;5.68;;
6388;SDS011;3227;42.654;23.360;2023-09-18T13:45:53;9.02;;;5.93;;
6388;SDS011;3227;42.654;23.360;2023-09-18T13:48:21;10.55;;;5.82;;
6388;SDS011;3227;42.654;23.360;2023-09-18T13:50:49;8.75;;;5.38;;
6388;SDS011;3227;42.654;23.360;2023-09-18T13:53:16;11.85;;;6.00;;
6388;SDS011;3227;42.654;23.360;2023-09-18T13:55:53;9.15;;;5.50;;
6388;SDS011;3227;42.654;23.360;2023-09-18T13:58:21;9.25;;;5.43;;
6388;SDS011;3227;42.654;23.360;2023-09-18T14:00:48;9.93;;;5.88;;
6388;SDS011;3227;42.654;23.360;2023-09-18T14:03:15;8.10;;;5.45;;
6388;SDS011;3227;42.654;23.360;2023-09-18T14:05:55;9.85;;;5.45;;
6388;SDS011;3227;42.654;23.360;2023-09-18T14:08:21;11.27;;;5.28;;
6388;SDS011;3227;42.654;23.360;2023-09-18T14:10:48;9.88;;;5.95;;
6388;SDS011;3227;42.654;23.360;2023-09-18T14:13:15;11.95;;;6.85;;
6388;SDS011;3227;42.654;23.360;2023-09-18T14:15:42;11.63;;;6.10;;
6388;SDS011;3227;42.654;23.360;2023-09-18T14:18:09;8.75;;;5.65;;
6388;SDS011;3227;42.654;23.360;2023-09-18T14:20:36;9.73;;;4.93;;
6388;SDS011;3227;42.654;23.360;2023-09-18T14:23:04;9.35;;;5.40;;
6388;SDS011;3227;42.654;23.360;2023-09-18T14:25:31;11.73;;;5.68;;
6388;SDS011;3227;42.654;23.360;2023-09-18T14:27:58;9.75;;;5.30;;
6388;SDS011;3227;42.654;23.360;2023-09-18T14:30:25;9.05;;;5.38;;
6388;SDS011;3227;42.654;23.360;2023-09-18T14:32:56;10.55;;;5.78;;
6388;SDS011;3227;42.654;23.360;2023-09-18T14:35:23;9.65;;;5.82;;
6388;SDS011;3227;42.654;23.360;2023-09-18T14:37:50;9.20;;;5.32;;
6388;SDS011;3227;42.654;23.360;2023-09-18T14:40:18;13.10;;;6.03;;
6388;SDS011;3227;42.654;23.360;2023-09-18T14:42:46;10.82;;;5.68;;
6388;SDS011;3227;42.654;23.360;2023-09-18T14:45:12;10.98;;;6.40;;
6388;SDS011;3227;42.654;23.360;2023-09-18T14:47:39;13.70;;;5.72;;
6388;SDS011;3227;42.654;23.360;2023-09-18T14:50:06;9.65;;;5.53;;
6388;SDS011;3227;42.654;23.360;2023-09-18T14:52:33;12.73;;;5.60;;
6388;SDS011;3227;42.654;23.360;2023-09-18T14:55:00;14.18;;;5.20;;